Time;durP1;ratioP1;P1;durP2;ratioP2;P2;SDS_P1;SDS_P2;PMS_P1;PMS_P2;Temp;Humidity;BMP_temperature;BMP_pressure;BME280_temperature;BME280_humidity;BME280_pressure;Samples;Min_cycle;Max_cycle;Signal;HPM_P1;HPM_P2
2023/12/28 00:01:25;;;;;;;0.05;0.05;;;;;;;10.76;45.52;102323.50;6118861;23;20702;-85
2023/12/28 00:03:51;;;;;;;0.10;0.10;;;;;;;10.74;45.74;102311.38;6094673;23;20392;-89
2023/12/28 00:06:19;;;;;;;0.20;0.20;;;;;;;10.76;45.30;102317.38;6122620;23;20368;-87
2023/12/28 00:08:45;;;;;;;0.10;0.10;;;;;;;10.71;45.32;102320.41;6094796;23;20362;-87
2023/12/28 00:11:11;;;;;;;0.13;0.13;;;;;;;10.66;45.64;102312.00;6093563;23;20354;-86
2023/12/28 00:13:36;;;;;;;0.17;0.17;;;;;;;10.62;45.74;102307.94;6094563;23;20421;-87
2023/12/28 00:16:02;;;;;;;0.90;0.30;;;;;;;10.68;45.41;102305.59;6069430;23;20370;-88
2023/12/28 00:18:28;;;;;;;0.10;0.10;;;;;;;10.65;44.99;102305.03;6094041;23;20384;-89
2023/12/28 00:20:54;;;;;;;0.13;0.13;;;;;;;10.64;45.57;102314.81;6094642;23;20373;-88
2023/12/28 00:23:22;;;;;;;0.20;0.20;;;;;;;10.47;45.49;102310.91;6094089;23;20771;-88
2023/12/28 00:25:48;;;;;;;0.40;0.40;;;;;;;10.34;45.78;102315.59;6093506;23;20377;-89
2023/12/28 00:28:13;;;;;;;0.50;0.40;;;;;;;10.11;46.58;102318.31;6069890;23;20366;-87
2023/12/28 00:30:39;;;;;;;0.10;0.10;;;;;;;9.98;47.27;102322.94;6113327;23;20357;-88
2023/12/28 00:33:05;;;;;;;0.60;0.60;;;;;;;10.09;46.81;102324.72;6114390;23;20368;-84
2023/12/28 00:35:30;;;;;;;1.20;0.70;;;;;;;10.29;46.55;102331.84;6114426;23;20386;-84
2023/12/28 00:37:59;;;;;;;0.20;0.20;;;;;;;10.37;45.83;102331.25;6112991;23;20378;-87
2023/12/28 00:40:25;;;;;;;0.10;0.10;;;;;;;10.42;45.65;102336.97;6113251;23;20354;-87
2023/12/28 00:42:50;;;;;;;0.17;0.17;;;;;;;10.37;46.13;102341.84;6113745;23;20358;-87
2023/12/28 00:45:17;;;;;;;0.80;0.40;;;;;;;10.24;45.97;102341.97;6115203;23;20365;-87
2023/12/28 00:47:43;;;;;;;0.30;0.30;;;;;;;10.16;46.20;102343.59;6140026;23;20413;-87
2023/12/28 00:50:14;;;;;;;0.40;0.40;;;;;;;10.23;46.44;102342.97;6141651;23;20370;-88
2023/12/28 00:52:40;;;;;;;0.10;0.10;;;;;;;10.42;45.81;102342.28;6119465;23;20452;-85
2023/12/28 00:55:07;;;;;;;0.20;0.20;;;;;;;10.54;45.79;102351.03;6122788;23;20377;-86
2023/12/28 00:57:33;;;;;;;0.40;0.40;;;;;;;10.61;45.23;102365.44;6121806;23;20389;-85
2023/12/28 00:59:59;;;;;;;0.30;0.30;;;;;;;10.51;45.63;102356.56;6108936;23;20416;-88
2023/12/28 01:02:24;;;;;;;0.40;0.40;;;;;;;10.31;45.84;102352.94;6097332;23;20424;-87
2023/12/28 01:04:50;;;;;;;0.20;0.20;;;;;;;10.20;45.99;102356.47;6095488;23;20420;-86
2023/12/28 01:07:18;;;;;;;0.20;0.20;;;;;;;10.22;46.14;102365.13;6119252;23;20433;-86
2023/12/28 01:09:44;;;;;;;0.20;0.20;;;;;;;10.07;45.92;102353.97;6094840;23;20393;-85
2023/12/28 01:12:10;;;;;;;0.33;0.33;;;;;;;9.90;46.21;102344.78;6095231;23;20830;-86
2023/12/28 01:14:35;;;;;;;2.10;0.50;;;;;;;9.72;47.30;102341.81;6126081;23;20601;-85
2023/12/28 01:17:01;;;;;;;0.20;0.20;;;;;;;9.62;47.75;102350.63;6115194;23;20392;-90
2023/12/28 01:19:27;;;;;;;0.30;0.30;;;;;;;9.51;48.13;102349.69;6146316;23;20425;-84
2023/12/28 01:21:52;;;;;;;0.30;0.30;;;;;;;9.55;48.15;102351.09;6098492;23;20848;-85
2023/12/28 01:24:18;;;;;;;0.60;0.60;;;;;;;9.69;47.90;102355.31;6119613;23;20393;-89
2023/12/28 01:26:46;;;;;;;1.60;0.32;;;;;;;9.51;47.61;102354.97;6095041;23;20365;-86
2023/12/28 01:29:12;;;;;;;0.70;0.70;;;;;;;9.23;48.48;102345.72;6094695;23;20373;-88
2023/12/28 01:31:38;;;;;;;0.17;0.17;;;;;;;9.17;48.02;102351.50;6095985;23;20726;-89
2023/12/28 01:34:09;;;;;;;0.10;0.10;;;;;;;9.32;47.98;102347.63;6119433;23;20362;-86
2023/12/28 01:36:34;;;;;;;0.20;0.20;;;;;;;9.50;47.62;102360.38;6118125;23;20366;-88
2023/12/28 01:39:00;;;;;;;1.00;0.50;;;;;;;9.53;47.00;102365.44;6094876;23;20366;-89
2023/12/28 01:41:26;;;;;;;0.68;0.68;;;;;;;8.99;48.64;102353.78;6119491;23;20382;-89
2023/12/28 01:43:52;;;;;;;0.50;0.40;;;;;;;8.56;49.63;102352.63;6117838;23;20393;-89
2023/12/28 01:46:19;;;;;;;0.70;0.70;;;;;;;8.80;49.07;102347.28;6095541;23;20376;-88
2023/12/28 01:48:48;;;;;;;0.10;0.10;;;;;;;9.06;48.21;102347.06;6093354;23;20410;-86
2023/12/28 01:51:14;;;;;;;0.30;0.30;;;;;;;9.06;47.88;102338.28;6093890;23;20370;-87
2023/12/28 01:53:41;;;;;;;0.20;0.20;;;;;;;8.95;47.68;102350.53;6118058;23;20440;-87
2023/12/28 01:56:07;;;;;;;0.95;0.45;;;;;;;8.86;47.88;102353.91;6093325;23;20904;-88
2023/12/28 01:58:35;;;;;;;0.40;0.40;;;;;;;8.77;48.20;102357.25;6093785;23;20866;-86
2023/12/28 02:01:01;;;;;;;0.30;0.30;;;;;;;8.74;48.14;102357.47;6094623;23;20396;-88
2023/12/28 02:03:28;;;;;;;0.65;0.65;;;;;;;8.76;48.43;102368.78;6092701;23;20396;-88
2023/12/28 02:05:54;;;;;;;0.45;0.45;;;;;;;8.79;47.71;102365.91;6068971;23;20369;-86
2023/12/28 02:08:19;;;;;;;0.38;0.38;;;;;;;8.80;47.59;102362.28;6092815;23;20702;-86
2023/12/28 02:10:45;;;;;;;0.45;0.45;;;;;;;8.75;47.50;102356.50;6097648;23;20404;-86
2023/12/28 02:13:11;;;;;;;0.20;0.20;;;;;;;8.67;47.68;102367.66;6103943;23;21426;-85
2023/12/28 02:15:39;;;;;;;0.20;0.20;;;;;;;8.64;48.04;102365.25;6095101;23;20667;-86
2023/12/28 02:18:20;;;;;;;0.93;0.57;;;;;;;8.66;47.35;102354.56;6092520;23;20401;-87
2023/12/28 02:20:47;;;;;;;0.47;0.40;;;;;;;8.64;47.61;102357.31;6094771;23;20492;-86
2023/12/28 02:23:12;;;;;;;0.20;0.20;;;;;;;8.54;47.70;102343.97;6092657;23;20370;-87
2023/12/28 02:25:38;;;;;;;0.20;0.20;;;;;;;8.40;47.93;102352.91;6116630;23;20385;-87
2023/12/28 02:28:04;;;;;;;0.43;0.43;;;;;;;8.30;47.99;102344.00;6092581;23;20421;-87
2023/12/28 02:30:30;;;;;;;0.40;0.40;;;;;;;8.26;48.12;102345.16;6092742;23;20353;-86
2023/12/28 02:33:17;;;;;;;0.80;0.80;;;;;;;8.20;48.07;102343.00;6115567;23;20703;-85
2023/12/28 02:36:05;;;;;;;0.47;0.47;;;;;;;8.20;48.26;102343.00;6092632;23;20346;-88
2023/12/28 02:38:36;;;;;;;0.30;0.30;;;;;;;8.06;48.50;102341.38;6092801;23;20464;-88
2023/12/28 02:41:03;;;;;;;0.40;0.40;;;;;;;8.19;48.17;102346.56;6091715;23;20369;-88
2023/12/28 02:43:29;;;;;;;0.30;0.30;;;;;;;8.23;48.30;102350.69;6067943;23;20365;-87
2023/12/28 02:45:55;;;;;;;0.63;0.63;;;;;;;8.11;48.59;102343.69;6092264;23;20362;-88
2023/12/28 02:48:20;;;;;;;0.57;0.57;;;;;;;8.11;48.44;102357.72;6094472;23;20868;-87
2023/12/28 02:50:46;;;;;;;0.57;0.50;;;;;;;8.11;48.34;102355.09;6094619;23;20373;-86
2023/12/28 02:53:13;;;;;;;0.43;0.43;;;;;;;8.10;48.44;102349.91;6094568;23;20361;-87
2023/12/28 02:55:41;;;;;;;0.50;0.50;;;;;;;7.98;48.62;102343.75;6093941;23;20358;-86
2023/12/28 02:58:07;;;;;;;0.35;0.25;;;;;;;8.03;48.79;102345.09;6116933;23;20845;-88
2023/12/28 03:00:32;;;;;;;1.03;0.50;;;;;;;8.13;48.49;102350.53;6117297;23;20408;-87
2023/12/28 03:02:58;;;;;;;0.40;0.37;;;;;;;8.15;48.10;102355.69;6094027;23;20495;-85
2023/12/28 03:05:24;;;;;;;0.63;0.53;;;;;;;8.15;48.35;102350.41;6124777;23;20365;-85
2023/12/28 03:07:49;;;;;;;0.45;0.45;;;;;;;8.10;48.11;102342.81;6113379;23;20393;-83
2023/12/28 03:10:15;;;;;;;0.45;0.45;;;;;;;8.11;47.98;102344.50;6132400;23;20364;-85
2023/12/28 03:12:42;;;;;;;0.25;0.25;;;;;;;8.07;48.16;102347.47;6096278;23;21089;-85
2023/12/28 03:15:08;;;;;;;0.30;0.30;;;;;;;7.96;48.24;102348.28;6096106;23;20388;-87
2023/12/28 03:17:33;;;;;;;0.70;0.70;;;;;;;7.82;48.90;102349.31;6095861;23;20409;-86
2023/12/28 03:20:00;;;;;;;0.90;0.55;;;;;;;7.61;49.76;102335.84;6094787;23;20366;-89
2023/12/28 03:22:26;;;;;;;2.40;0.88;;;;;;;7.56;49.68;102337.97;6094417;23;20376;-88
2023/12/28 03:24:52;;;;;;;0.50;0.50;;;;;;;7.45;50.02;102336.09;6105299;23;20361;-86
2023/12/28 03:27:18;;;;;;;1.25;0.93;;;;;;;7.40;50.19;102332.94;6115874;23;20361;-87
2023/12/28 03:29:46;;;;;;;0.70;0.70;;;;;;;7.45;49.96;102333.47;6121177;23;20474;-87
2023/12/28 03:32:11;;;;;;;0.90;0.90;;;;;;;7.41;50.32;102339.91;6097463;23;20357;-87
2023/12/28 03:34:37;;;;;;;0.40;0.40;;;;;;;7.18;51.05;102346.81;6094434;23;20679;-87
2023/12/28 03:37:03;;;;;;;0.40;0.40;;;;;;;6.96;51.48;102343.03;6118699;23;20464;-87
2023/12/28 03:39:28;;;;;;;0.30;0.30;;;;;;;6.76;52.13;102343.56;6094109;23;20373;-84
2023/12/28 03:41:54;;;;;;;1.50;1.37;;;;;;;6.80;51.82;102345.88;6093365;23;20372;-86
2023/12/28 03:44:20;;;;;;;2.30;2.10;;;;;;;6.75;51.49;102355.06;6118620;23;20833;-87
2023/12/28 03:46:50;;;;;;;0.60;0.60;;;;;;;6.69;51.39;102341.34;6096329;23;20376;-87
2023/12/28 03:49:20;;;;;;;0.35;0.35;;;;;;;6.68;51.49;102358.13;6118496;23;20381;-85
2023/12/28 03:51:47;;;;;;;0.50;0.50;;;;;;;6.73;50.83;102351.69;6094115;23;20358;-85
2023/12/28 03:54:12;;;;;;;0.20;0.20;;;;;;;6.68;50.87;102357.25;6105489;23;21044;-89
2023/12/28 03:56:40;;;;;;;0.20;0.20;;;;;;;6.64;50.96;102351.34;6119928;23;20361;-88
2023/12/28 03:59:06;;;;;;;0.50;0.50;;;;;;;6.67;50.89;102353.78;6119723;23;20393;-89
2023/12/28 04:01:33;;;;;;;0.20;0.20;;;;;;;6.74;50.69;102348.13;6117552;23;20401;-89
2023/12/28 04:03:59;;;;;;;0.30;0.30;;;;;;;6.77;50.77;102353.16;6097617;23;20361;-89
2023/12/28 04:06:44;;;;;;;0.28;0.28;;;;;;;6.67;51.24;102355.59;6095378;23;20382;-91
2023/12/28 04:09:12;;;;;;;0.32;0.32;;;;;;;6.48;51.69;102358.59;6096039;23;20417;-92
2023/12/28 04:11:38;;;;;;;0.45;0.45;;;;;;;6.22;52.26;102370.88;6097791;23;20433;-92
2023/12/28 04:14:03;;;;;;;0.70;0.70;;;;;;;5.96;53.87;102369.91;6122579;23;20437;-92
2023/12/28 04:16:30;;;;;;;0.32;0.32;;;;;;;5.83;54.16;102369.84;6123208;23;20393;-93
2023/12/28 04:18:56;;;;;;;0.45;0.45;;;;;;;5.77;54.45;102372.88;6121527;23;20389;-87
2023/12/28 04:21:21;;;;;;;4.00;1.20;;;;;;;5.71;54.56;102374.94;6117762;23;20837;-88
2023/12/28 04:23:47;;;;;;;0.43;0.43;;;;;;;5.65;54.29;102367.41;6117540;23;20365;-87
2023/12/28 04:26:13;;;;;;;0.50;0.50;;;;;;;5.70;54.15;102367.16;6093823;23;20350;-86
2023/12/28 04:28:39;;;;;;;1.40;1.30;;;;;;;5.69;54.23;102373.34;6094229;23;20730;-86
2023/12/28 04:31:06;;;;;;;0.30;0.30;;;;;;;5.80;54.18;102380.53;6092380;23;20385;-86
2023/12/28 04:33:32;;;;;;;0.20;0.20;;;;;;;5.87;53.59;102372.19;6092638;23;20449;-86
2023/12/28 04:36:03;;;;;;;0.20;0.20;;;;;;;5.99;53.15;102383.72;6094308;23;20353;-84
2023/12/28 04:38:29;;;;;;;0.10;0.10;;;;;;;6.07;52.88;102392.00;6095043;23;20377;-88
2023/12/28 04:40:54;;;;;;;0.22;0.22;;;;;;;6.06;52.79;102382.38;6094357;23;20366;-88
2023/12/28 04:43:20;;;;;;;0.70;0.40;;;;;;;6.06;52.56;102384.19;6118963;23;20377;-88
2023/12/28 04:45:46;;;;;;;0.10;0.10;;;;;;;6.12;52.45;102391.69;6097880;23;20842;-86
2023/12/28 04:48:11;;;;;;;0.10;0.10;;;;;;;6.16;52.49;102380.03;6119788;23;20385;-90
2023/12/28 04:50:37;;;;;;;0.10;0.10;;;;;;;6.16;52.46;102390.56;6096043;23;20448;-90
2023/12/28 04:53:03;;;;;;;0.38;0.38;;;;;;;6.17;52.34;102386.13;6121273;23;20399;-90
2023/12/28 04:55:29;;;;;;;0.75;0.38;;;;;;;6.09;52.76;102397.16;6121631;23;20424;-87
2023/12/28 04:58:01;;;;;;;0.85;0.63;;;;;;;6.03;52.95;102403.66;6098758;23;20389;-90
2023/12/28 05:00:27;;;;;;;0.50;0.50;;;;;;;5.94;52.83;102397.19;6098396;23;20765;-91
2023/12/28 05:02:52;;;;;;;0.40;0.40;;;;;;;6.01;52.86;102405.53;6112195;23;20369;-91
2023/12/28 05:05:18;;;;;;;0.40;0.40;;;;;;;6.13;52.48;102404.75;6141926;23;20384;-89
2023/12/28 05:07:44;;;;;;;0.30;0.30;;;;;;;6.19;51.82;102415.84;6115318;23;20839;-87
2023/12/28 05:10:11;;;;;;;0.50;0.50;;;;;;;6.17;51.95;102415.09;6139743;23;20349;-92
2023/12/28 05:12:37;;;;;;;0.30;0.30;;;;;;;6.23;51.90;102409.41;6096588;23;20401;-87
2023/12/28 05:15:03;;;;;;;0.10;0.10;;;;;;;6.31;51.86;102410.59;6114772;23;20381;-87
2023/12/28 05:17:31;;;;;;;1.08;1.08;;;;;;;6.35;51.56;102411.25;6121231;23;20393;-88
2023/12/28 05:19:57;;;;;;;0.70;0.60;;;;;;;6.39;51.18;102418.03;6109846;23;20393;-89
2023/12/28 05:22:23;;;;;;;0.40;0.40;;;;;;;6.42;51.37;102430.97;6096239;23;20377;-86
2023/12/28 05:24:48;;;;;;;0.45;0.40;;;;;;;6.37;51.16;102419.06;6100881;23;20373;-88
2023/12/28 05:27:14;;;;;;;0.30;0.30;;;;;;;6.36;51.34;102420.03;6100294;23;20373;-88
2023/12/28 05:29:40;;;;;;;0.40;0.40;;;;;;;6.32;51.29;102420.22;6122834;23;20378;-88
2023/12/28 05:32:06;;;;;;;1.07;0.67;;;;;;;6.32;51.41;102420.22;6099096;23;20369;-87
2023/12/28 05:34:31;;;;;;;1.00;0.80;;;;;;;6.38;51.41;102418.13;6104047;23;20373;-89
2023/12/28 05:36:57;;;;;;;0.40;0.40;;;;;;;6.53;51.29;102426.81;6117888;23;20853;-91
2023/12/28 05:39:22;;;;;;;0.60;0.60;;;;;;;6.49;51.15;102426.16;6144656;23;20414;-87
2023/12/28 05:41:50;;;;;;;0.68;0.68;;;;;;;6.45;51.54;102433.41;6100908;23;20365;-90
2023/12/28 05:44:17;;;;;;;0.20;0.20;;;;;;;6.42;51.35;102433.59;6121906;23;20378;-91
2023/12/28 05:46:42;;;;;;;0.40;0.40;;;;;;;6.39;51.09;102427.69;6098146;23;20896;-89
2023/12/28 05:49:08;;;;;;;1.03;1.03;;;;;;;6.34;51.32;102422.75;6098962;23;20382;-92
2023/12/28 05:51:41;;;;;;;0.40;0.40;;;;;;;6.40;51.15;102421.50;6097531;23;20426;-89
2023/12/28 05:54:08;;;;;;;0.50;0.50;;;;;;;6.40;50.97;102429.41;6097009;23;20406;-91
2023/12/28 05:56:33;;;;;;;1.30;0.70;;;;;;;6.38;51.01;102433.94;6097357;23;20369;-89
2023/12/28 05:58:59;;;;;;;0.30;0.30;;;;;;;6.40;50.77;102418.88;6096335;23;20377;-90
2023/12/28 06:01:25;;;;;;;1.30;1.30;;;;;;;6.39;51.02;102432.97;6123792;23;20830;-89
2023/12/28 06:03:52;;;;;;;0.50;0.50;;;;;;;6.34;51.05;102429.78;6097059;23;20739;-90
2023/12/28 06:06:18;;;;;;;0.30;0.30;;;;;;;6.29;50.93;102425.66;6098651;23;20856;-90
2023/12/28 06:08:45;;;;;;;0.67;0.67;;;;;;;6.26;51.16;102427.66;6097925;23;20455;-91
2023/12/28 06:11:11;;;;;;;0.65;0.65;;;;;;;6.17;51.20;102415.94;6096557;23;20357;-90
2023/12/28 06:13:37;;;;;;;0.30;0.30;;;;;;;6.18;51.46;102417.63;6120596;23;20378;-90
2023/12/28 06:16:02;;;;;;;0.50;0.40;;;;;;;6.25;51.05;102428.63;6096688;23;20358;-90
2023/12/28 06:18:30;;;;;;;0.30;0.30;;;;;;;6.20;51.37;102433.34;6122138;23;20385;-90
2023/12/28 06:20:55;;;;;;;0.40;0.40;;;;;;;6.21;51.05;102429.75;6096633;23;20365;-86
2023/12/28 06:23:21;;;;;;;0.20;0.20;;;;;;;6.25;51.08;102429.44;6095680;23;20754;-87
2023/12/28 06:25:47;;;;;;;0.30;0.30;;;;;;;6.21;51.03;102414.81;6121755;23;20372;-87
2023/12/28 06:28:12;;;;;;;0.50;0.50;;;;;;;6.26;50.85;102417.97;6098001;23;20368;-91
2023/12/28 06:30:39;;;;;;;0.60;0.60;;;;;;;6.30;51.28;102430.00;6121697;23;20386;-87
2023/12/28 06:33:05;;;;;;;0.50;0.50;;;;;;;6.29;51.43;102430.94;6098854;23;20374;-89
2023/12/28 06:35:31;;;;;;;1.20;1.20;;;;;;;6.30;51.21;102440.53;6096135;23;20372;-89
2023/12/28 06:37:59;;;;;;;1.15;0.73;;;;;;;6.26;51.23;102444.28;6127312;23;20377;-85
2023/12/28 06:40:24;;;;;;;6.20;2.03;;;;;;;6.15;51.72;102438.03;6122336;23;20358;-83
2023/12/28 06:42:50;;;;;;;1.45;1.30;;;;;;;6.05;51.91;102443.91;6120767;23;20372;-87
2023/12/28 06:45:16;;;;;;;1.88;1.77;;;;;;;5.85;52.31;102445.13;6122202;23;20358;-86
2023/12/28 06:47:42;;;;;;;0.82;0.82;;;;;;;5.51;53.12;102436.69;6098889;23;20381;-86
2023/12/28 06:50:08;;;;;;;0.77;0.50;;;;;;;5.46;53.34;102438.75;6098697;23;20362;-86
2023/12/28 06:52:33;;;;;;;1.88;1.27;;;;;;;5.41;53.46;102451.34;6121371;23;20362;-87
2023/12/28 06:54:59;;;;;;;0.30;0.30;;;;;;;5.44;53.46;102447.66;6119610;23;20966;-85
2023/12/28 06:57:25;;;;;;;0.93;0.93;;;;;;;5.54;53.19;102451.44;6120205;23;20381;-85
2023/12/28 06:59:50;;;;;;;0.60;0.60;;;;;;;5.47;52.95;102450.13;6096249;23;20365;-86
2023/12/28 07:02:23;;;;;;;0.50;0.47;;;;;;;5.58;52.85;102445.03;6119349;23;20362;-86
2023/12/28 07:04:51;;;;;;;0.80;0.60;;;;;;;5.69;52.62;102444.38;6118803;23;20834;-87
2023/12/28 07:07:23;;;;;;;0.52;0.52;;;;;;;5.64;53.11;102444.69;6095384;23;20357;-86
2023/12/28 07:09:53;;;;;;;0.80;0.80;;;;;;;5.58;52.84;102450.31;6118473;23;20365;-85
2023/12/28 07:12:20;;;;;;;0.50;0.50;;;;;;;5.59;53.15;102443.28;6117806;23;20425;-86
2023/12/28 07:14:46;;;;;;;0.63;0.63;;;;;;;5.58;53.38;102439.78;6094536;23;20444;-86
2023/12/28 07:17:15;;;;;;;0.47;0.47;;;;;;;5.68;53.11;102437.44;6094513;23;20464;-86
2023/12/28 07:19:44;;;;;;;2.17;0.90;;;;;;;5.66;53.64;102436.69;6123285;23;20452;-86
2023/12/28 07:22:17;;;;;;;0.70;0.70;;;;;;;5.43;54.12;102441.56;6097549;23;20365;-85
2023/12/28 07:24:43;;;;;;;1.30;1.02;;;;;;;5.30;54.80;102440.63;6098538;23;20374;-87
2023/12/28 07:27:08;;;;;;;1.10;1.10;;;;;;;5.43;54.88;102436.31;6141472;23;20449;-86
2023/12/28 07:29:34;;;;;;;0.30;0.30;;;;;;;5.65;54.36;102427.94;6095879;23;20465;-86
2023/12/28 07:31:59;;;;;;;0.30;0.30;;;;;;;5.76;53.81;102424.63;6095522;23;20832;-86
2023/12/28 07:34:26;;;;;;;0.70;0.70;;;;;;;5.91;53.60;102428.09;6106717;23;20362;-84
2023/12/28 07:36:51;;;;;;;1.02;1.00;;;;;;;5.98;53.48;102424.19;6133774;23;20365;-86
2023/12/28 07:39:18;;;;;;;0.60;0.55;;;;;;;6.20;52.98;102435.97;6092402;23;20369;-87
2023/12/28 07:41:49;;;;;;;1.40;0.70;;;;;;;6.30;53.05;102437.03;6092412;23;20373;-84
2023/12/28 07:44:16;;;;;;;1.40;1.30;;;;;;;6.27;53.14;102438.09;6096836;23;20917;-88
2023/12/28 07:46:42;;;;;;;0.30;0.30;;;;;;;6.38;52.88;102437.41;6106854;23;20399;-89
2023/12/28 07:49:20;;;;;;;0.63;0.63;;;;;;;6.32;53.27;102449.19;6073568;23;20373;-88
2023/12/28 07:51:46;;;;;;;0.60;0.60;;;;;;;6.26;53.47;102438.19;6052490;23;20912;-87
2023/12/28 07:54:11;;;;;;;1.20;1.17;;;;;;;6.31;53.67;102436.09;6092887;23;20362;-85
2023/12/28 07:56:37;;;;;;;0.40;0.40;;;;;;;6.53;53.40;102447.88;6096347;23;20813;-86
2023/12/28 07:59:03;;;;;;;0.30;0.30;;;;;;;6.61;52.91;102450.84;6094416;23;20822;-87
2023/12/28 08:01:33;;;;;;;1.38;1.02;;;;;;;6.65;53.25;102462.88;6095259;23;20362;-86
2023/12/28 08:03:59;;;;;;;0.50;0.50;;;;;;;6.63;53.09;102451.59;6095092;23;20396;-86
2023/12/28 08:06:25;;;;;;;0.45;0.40;;;;;;;6.70;52.97;102442.34;6094886;23;20522;-86
2023/12/28 08:08:51;;;;;;;0.57;0.57;;;;;;;6.87;52.86;102441.22;6094777;23;20773;-86
2023/12/28 08:11:16;;;;;;;1.60;0.50;;;;;;;7.02;52.41;102444.59;6118682;23;20358;-85
2023/12/28 08:13:45;;;;;;;0.30;0.30;;;;;;;7.18;52.12;102445.22;6094542;23;20398;-85
2023/12/28 08:16:10;;;;;;;0.30;0.30;;;;;;;7.31;51.97;102444.41;6093782;23;20375;-86
2023/12/28 08:18:36;;;;;;;0.10;0.10;;;;;;;7.35;51.77;102449.38;6096302;23;20456;-85
2023/12/28 08:21:05;;;;;;;0.50;0.50;;;;;;;7.39;51.69;102439.44;6097019;23;20714;-88
2023/12/28 08:23:31;;;;;;;0.10;0.10;;;;;;;7.49;51.81;102435.22;6094257;23;20368;-86
2023/12/28 08:25:56;;;;;;;0.35;0.35;;;;;;;7.61;51.29;102430.88;6095044;23;20366;-86
2023/12/28 08:28:23;;;;;;;0.25;0.25;;;;;;;7.73;51.17;102427.38;6099182;23;20424;-87
2023/12/28 08:30:49;;;;;;;0.30;0.30;;;;;;;7.71;50.94;102437.19;6128064;23;20379;-87
2023/12/28 08:33:18;;;;;;;0.30;0.30;;;;;;;7.77;50.80;102428.81;6100451;23;20367;-85
2023/12/28 08:35:44;;;;;;;0.50;0.50;;;;;;;7.82;50.68;102434.63;6077124;23;20390;-87
2023/12/28 08:38:10;;;;;;;0.30;0.30;;;;;;;7.84;50.31;102440.63;6124580;23;20435;-87
2023/12/28 08:40:36;;;;;;;1.15;0.70;;;;;;;7.87;49.97;102439.59;6111884;23;20847;-88
2023/12/28 08:43:02;;;;;;;1.00;0.65;;;;;;;8.04;49.75;102433.91;6134662;23;20439;-88
2023/12/28 08:45:28;;;;;;;0.20;0.20;;;;;;;8.17;49.70;102427.75;6125248;23;20364;-85
2023/12/28 08:47:54;;;;;;;0.40;0.40;;;;;;;8.12;49.64;102419.31;6100224;23;20395;-86
2023/12/28 08:50:19;;;;;;;0.35;0.35;;;;;;;8.09;49.63;102422.19;6123637;23;20439;-86
2023/12/28 08:52:45;;;;;;;0.75;0.75;;;;;;;8.10;49.71;102423.88;6124985;23;20460;-87
2023/12/28 08:55:11;;;;;;;0.50;0.50;;;;;;;8.07;49.37;102413.50;6100421;23;20360;-88
2023/12/28 08:57:36;;;;;;;1.10;1.00;;;;;;;7.98;49.58;102407.13;6099393;23;20384;-87
2023/12/28 09:00:05;;;;;;;1.07;1.07;;;;;;;7.93;49.84;102419.81;6099085;23;20352;-87
2023/12/28 09:02:31;;;;;;;0.22;0.22;;;;;;;8.03;49.72;102411.13;6099419;23;20364;-85
2023/12/28 09:04:58;;;;;;;0.15;0.15;;;;;;;8.27;49.38;102407.63;6099293;23;20435;-88
2023/12/28 09:07:24;;;;;;;0.20;0.20;;;;;;;8.44;49.18;102406.41;6098444;23;20875;-88
2023/12/28 09:09:50;;;;;;;0.40;0.40;;;;;;;8.61;49.00;102416.56;6099293;23;20371;-88
2023/12/28 09:12:16;;;;;;;0.30;0.30;;;;;;;8.64;48.97;102412.00;6098989;23;20364;-84
2023/12/28 09:14:42;;;;;;;0.57;0.57;;;;;;;8.56;49.01;102409.94;6125150;23;20443;-88
2023/12/28 09:17:08;;;;;;;0.40;0.40;;;;;;;8.45;49.38;102408.09;6100390;23;20375;-88
2023/12/28 09:19:33;;;;;;;0.60;0.60;;;;;;;8.58;49.29;102405.38;6103987;23;20931;-86
2023/12/28 09:22:33;;;;;;;0.30;0.30;;;;;;;8.77;49.24;102412.78;6118998;23;20379;-88
2023/12/28 09:24:59;;;;;;;1.80;1.67;;;;;;;8.64;49.05;102404.06;6123802;23;20355;-88
2023/12/28 09:27:25;;;;;;;0.53;0.50;;;;;;;8.71;49.36;102395.56;6139821;23;20367;-86
2023/12/28 09:29:53;;;;;;;0.50;0.50;;;;;;;8.74;48.78;102378.63;6108343;23;20415;-90
2023/12/28 09:32:27;;;;;;;0.55;0.55;;;;;;;8.89;48.82;102388.03;6126578;23;20360;-86
2023/12/28 09:35:26;;;;;;;;;;;;;;;;;;;;;
2023/12/28 09:37:56;;;;;;;1.40;1.30;;;;;;;8.99;48.82;102377.59;6126581;23;20475;-85
2023/12/28 09:41:32;;;;;;;;;;;;;;;;;;;;;
2023/12/28 09:44:26;;;;;;;;;;;;;;;;;;;;;
2023/12/28 09:47:29;;;;;;;;;;;;;;;;;;;;;
2023/12/28 09:50:54;;;;;;;;;;;;;;;;;;;;;
2023/12/28 09:53:49;;;;;;;0.47;0.47;;;;;;;9.27;47.30;102319.84;6131253;23;20920;-88
2023/12/28 09:56:16;;;;;;;1.00;0.70;;;;;;;9.40;47.34;102322.38;6101679;23;20368;-90
2023/12/28 09:58:44;;;;;;;1.65;0.90;;;;;;;9.50;46.97;102313.56;6102297;23;20411;-87
2023/12/28 10:01:10;;;;;;;0.43;0.43;;;;;;;9.71;47.09;102318.94;6102882;23;20832;-87
2023/12/28 10:03:37;;;;;;;0.52;0.52;;;;;;;9.57;46.72;102314.75;6125933;23;20360;-88
2023/12/28 10:06:03;;;;;;;1.20;0.68;;;;;;;9.58;46.60;102315.63;6101396;23;20375;-87
2023/12/28 10:08:30;;;;;;;0.80;0.80;;;;;;;9.58;46.59;102299.72;6101223;23;20371;-90
2023/12/28 10:10:58;;;;;;;0.67;0.67;;;;;;;9.53;46.33;102292.16;6136971;23;20389;-88
2023/12/28 10:13:25;;;;;;;0.40;0.40;;;;;;;9.55;45.49;102290.22;6147939;23;20427;-89
2023/12/28 10:15:51;;;;;;;1.20;1.20;;;;;;;9.57;45.79;102303.31;6116694;23;20364;-87
2023/12/28 10:18:23;;;;;;;0.70;0.70;;;;;;;9.60;45.46;102294.28;6115260;23;20434;-87
2023/12/28 10:21:50;;;;;;;;;;;;;;;;;;;;;
2023/12/28 10:47:15;;;;;;;2.28;1.77;;;;;;;10.01;45.89;102214.09;6080379;23;20379;-90
2023/12/28 10:50:27;;;;;;;0.57;0.57;;;;;;;10.20;45.26;102212.53;6069147;23;20374;-91
2023/12/28 10:53:49;;;;;;;0.57;0.57;;;;;;;10.20;45.23;102215.16;6008236;23;20427;-89
2023/12/28 10:57:19;;;;;;;;;;;;;;;;;;;;;
2023/12/28 11:03:59;;;;;;;;;;;;;;;;;;;;;
2023/12/28 11:07:06;;;;;;;0.50;0.50;;;;;;;10.39;44.80;102206.50;6001744;23;20373;-91
2023/12/28 11:13:00;;;;;;;0.52;0.52;;;;;;;10.67;45.24;102194.34;5854567;24;20376;-93
2023/12/28 11:16:08;;;;;;;0.55;0.55;;;;;;;10.63;44.93;102185.81;6027121;23;20999;-93
2023/12/28 12:08:21;;;;;;;0.33;0.33;;;;;;;11.20;43.77;102106.47;6081044;23;20831;-91
2023/12/28 12:10:47;;;;;;;1.02;0.93;;;;;;;11.26;44.05;102103.25;6079681;23;20401;-91
2023/12/28 12:13:18;;;;;;;1.30;1.20;;;;;;;11.17;44.07;102103.28;6102420;23;20377;-89
2023/12/28 12:15:44;;;;;;;0.50;0.50;;;;;;;11.28;43.61;102089.84;6100376;23;20366;-89
2023/12/28 12:18:10;;;;;;;1.75;0.60;;;;;;;11.29;43.76;102088.88;6100518;23;20735;-89
2023/12/28 12:28:37;;;;;;;0.55;0.55;;;;;;;11.42;43.01;102056.72;6002174;23;20431;-92
2023/12/28 13:43:24;;;;;;;;;;;;;;;;;;;;;
2023/12/28 13:46:05;;;;;;;0.32;0.32;;;;;;;12.30;41.38;102014.75;6065568;23;20372;-92
2023/12/28 13:48:35;;;;;;;0.17;0.17;;;;;;;12.29;41.57;102021.03;6064026;23;20457;-90
2023/12/28 13:51:04;;;;;;;0.10;0.10;;;;;;;12.38;41.48;102013.97;6047001;23;20398;-92
2023/12/28 13:53:31;;;;;;;0.38;0.38;;;;;;;12.32;41.54;102003.97;6028226;23;20365;-91
2023/12/28 13:55:57;;;;;;;0.22;0.22;;;;;;;12.43;41.32;102015.19;6026506;23;20361;-92
2023/12/28 13:58:26;;;;;;;0.10;0.10;;;;;;;12.42;41.36;102007.38;6024769;23;20381;-92
2023/12/28 14:01:02;;;;;;;1.00;0.23;;;;;;;12.56;41.27;102020.16;6026963;23;20397;-92
2023/12/28 14:03:34;;;;;;;0.20;0.20;;;;;;;12.56;41.06;102014.84;6023830;23;20376;-93
2023/12/28 14:06:04;;;;;;;0.20;0.20;;;;;;;12.46;41.26;102002.59;6064852;23;20377;-90
2023/12/28 14:08:32;;;;;;;0.20;0.20;;;;;;;12.51;41.27;102008.28;6065792;23;20349;-90
2023/12/28 14:10:58;;;;;;;0.50;0.50;;;;;;;12.54;41.19;102015.97;6006563;23;20377;-92
2023/12/28 14:13:25;;;;;;;0.50;0.40;;;;;;;12.56;40.96;102004.19;6026454;23;20373;-89
2023/12/28 14:15:54;;;;;;;0.70;0.70;;;;;;;12.54;41.15;102005.34;6026628;23;20369;-90
2023/12/28 14:18:20;;;;;;;0.20;0.20;;;;;;;12.52;41.09;102000.16;6049430;23;20412;-90
2023/12/28 14:20:48;;;;;;;0.30;0.30;;;;;;;12.54;41.01;101998.19;6048499;23;20376;-91
2023/12/28 14:23:14;;;;;;;0.30;0.30;;;;;;;12.62;41.04;101990.31;6026400;23;20365;-90
2023/12/28 14:25:40;;;;;;;0.50;0.50;;;;;;;12.56;41.17;101998.88;6022180;23;20409;-90
2023/12/28 14:28:09;;;;;;;0.20;0.20;;;;;;;12.57;41.12;102005.06;6043192;23;20396;-93
2023/12/28 14:30:35;;;;;;;0.10;0.10;;;;;;;12.67;41.09;101999.63;6046238;23;20429;-90
2023/12/28 14:33:05;;;;;;;0.20;0.20;;;;;;;12.65;41.27;101993.66;6018667;23;20365;-89